Time;durP1;ratioP1;P1;durP2;ratioP2;P2;SDS_P1;SDS_P2;PMS_P1;PMS_P2;Temp;Humidity;BMP_temperature;BMP_pressure;BME280_temperature;BME280_humidity;BME280_pressure;Samples;Min_cycle;Max_cycle;Signal;HPM_P1;HPM_P2
2023/10/09 00:01:12;;;;;;;47.80;25.88;;;13.70;99.80;;;;;;5054846;28;20032;-76
2023/10/09 00:03:39;;;;;;;48.58;24.75;;;13.80;99.70;;;;;;5069731;28;20056;-76
2023/10/09 00:06:05;;;;;;;51.05;24.95;;;13.80;99.40;;;;;;5053379;28;20028;-77
2023/10/09 00:08:31;;;;;;;40.95;25.73;;;13.70;99.10;;;;;;5065123;28;20037;-76
2023/10/09 00:11:13;;;;;;;54.30;28.70;;;13.70;99.00;;;;;;5057607;28;20035;-76
2023/10/09 00:13:48;;;;;;;55.45;28.60;;;13.60;99.20;;;;;;5065736;28;20085;-76
2023/10/09 00:16:23;;;;;;;46.88;27.42;;;13.60;99.30;;;;;;5052988;28;20032;-76
2023/10/09 00:18:50;;;;;;;52.70;29.25;;;13.50;99.30;;;;;;5065174;28;20892;-77
2023/10/09 00:21:20;;;;;;;55.55;29.73;;;13.50;99.30;;;;;;5058054;28;20035;-76
2023/10/09 00:23:52;;;;;;;56.10;29.27;;;13.50;99.30;;;;;;5066362;28;20043;-76
2023/10/09 00:26:21;;;;;;;49.20;28.63;;;13.50;99.30;;;;;;5064109;28;20040;-76
2023/10/09 00:28:47;;;;;;;55.72;29.63;;;13.50;99.30;;;;;;5057884;28;20040;-76
2023/10/09 00:31:15;;;;;;;59.55;29.20;;;13.50;99.10;;;;;;5070112;28;20079;-76
2023/10/09 00:33:43;;;;;;;56.38;31.48;;;13.50;99.30;;;;;;5052928;28;20020;-76
2023/10/09 00:36:09;;;;;;;56.38;30.42;;;13.50;99.60;;;;;;5071371;28;20119;-76
2023/10/09 00:38:38;;;;;;;60.15;31.05;;;13.50;99.80;;;;;;5051519;28;20363;-76
2023/10/09 00:41:10;;;;;;;61.72;31.20;;;13.60;99.80;;;;;;5058787;28;20039;-76
2023/10/09 00:43:37;;;;;;;52.97;28.38;;;13.60;99.80;;;;;;5052720;28;21216;-75
2023/10/09 00:46:23;;;;;;;52.53;28.83;;;13.70;99.50;;;;;;5063660;28;20043;-75
2023/10/09 00:48:53;;;;;;;49.47;27.13;;;13.60;99.10;;;;;;5055221;28;20035;-77
2023/10/09 00:51:21;;;;;;;50.50;27.77;;;13.50;99.00;;;;;;5069530;28;20036;-77
2023/10/09 00:53:51;;;;;;;49.08;28.35;;;13.40;99.00;;;;;;5054569;28;20038;-75
2023/10/09 00:56:19;;;;;;;;;;;13.40;99.10;;;;;;5071071;28;20034;-77
2023/10/09 00:58:48;;;;;;;52.92;26.95;;;13.40;99.10;;;;;;5069307;28;19967;-76
2023/10/09 01:01:17;;;;;;;49.78;27.92;;;13.30;99.00;;;;;;5075062;28;20020;-75
2023/10/09 01:03:45;;;;;;;56.33;29.63;;;13.30;99.20;;;;;;5057299;28;20038;-76
2023/10/09 01:11:10;;;;;;;60.47;29.52;;;13.30;99.00;;;;;;5063222;28;20385;-76
2023/10/09 01:13:52;;;;;;;56.97;28.20;;;13.20;99.00;;;;;;5056276;28;20106;-76
2023/10/09 01:16:44;;;;;;;60.97;30.10;;;13.20;99.00;;;;;;5069684;28;20108;-76
2023/10/09 01:19:19;;;;;;;55.78;30.33;;;13.20;99.30;;;;;;5049878;28;20259;-76
2023/10/09 01:21:45;;;;;;;53.35;29.30;;;13.10;99.40;;;;;;5067974;28;20029;-76
2023/10/09 01:24:11;;;;;;;72.25;33.72;;;13.20;99.50;;;;;;5057396;28;20094;-75
2023/10/09 01:26:39;;;;;;;61.58;30.40;;;13.20;99.60;;;;;;5066334;28;20036;-75
2023/10/09 01:29:10;;;;;;;57.07;30.40;;;13.20;99.60;;;;;;5057945;28;20090;-76
2023/10/09 01:31:43;;;;;;;54.83;28.38;;;13.20;99.50;;;;;;5071190;28;20289;-75
2023/10/09 01:34:09;;;;;;;60.40;30.52;;;13.20;99.50;;;;;;5053643;28;20365;-76
2023/10/09 01:36:39;;;;;;;55.70;29.60;;;13.10;99.30;;;;;;5069692;28;20079;-76
2023/10/09 01:39:21;;;;;;;71.32;33.33;;;13.10;99.40;;;;;;5053000;28;20515;-76
2023/10/09 01:41:49;;;;;;;69.70;32.47;;;13.20;99.70;;;;;;5066569;28;20048;-76
2023/10/09 01:44:16;;;;;;;55.88;31.05;;;13.30;99.80;;;;;;5056330;28;20155;-75
2023/10/09 01:46:45;;;;;;;63.92;31.02;;;13.40;99.90;;;;;;5064119;28;20385;-77
2023/10/09 01:49:21;;;;;;;56.25;29.67;;;13.50;99.90;;;;;;5057291;28;20128;-76
2023/10/09 01:51:48;;;;;;;65.00;31.08;;;13.60;99.90;;;;;;5068360;28;20453;-76
2023/10/09 01:54:33;;;;;;;53.53;28.85;;;13.60;99.90;;;;;;5064116;28;20034;-76
2023/10/09 01:57:05;;;;;;;52.65;28.83;;;13.70;99.90;;;;;;5067185;28;20016;-76
2023/10/09 01:59:32;;;;;;;47.88;27.75;;;13.70;99.90;;;;;;5056988;28;20059;-76
2023/10/09 02:02:00;;;;;;;51.58;27.30;;;13.70;99.80;;;;;;5056305;28;20096;-76
2023/10/09 02:04:26;;;;;;;51.35;27.30;;;13.70;99.70;;;;;;5060346;28;20730;-76
2023/10/09 02:06:52;;;;;;;57.80;31.67;;;13.70;99.70;;;;;;5046991;28;20028;-76
2023/10/09 02:09:22;;;;;;;54.22;30.63;;;13.80;99.70;;;;;;5065062;28;20046;-76
2023/10/09 02:11:47;;;;;;;;;;;13.80;99.70;;;;;;5052808;28;20128;-76
2023/10/09 02:14:20;;;;;;;53.58;29.40;;;13.90;99.80;;;;;;5053821;28;20292;-76
2023/10/09 02:17:20;;;;;;;53.75;30.05;;;14.00;99.70;;;;;;5056592;28;20035;-77
2023/10/09 02:19:34;;;;;;;53.03;28.52;;;14.00;99.70;;;;;;5062855;28;20039;-76
2023/10/09 02:22:17;;;;;;;47.05;29.85;;;14.00;99.50;;;;;;5071169;28;20053;-76
2023/10/09 02:24:57;;;;;;;47.72;28.40;;;13.90;99.40;;;;;;5068801;28;20335;-76
2023/10/09 02:27:59;;;;;;;50.38;27.35;;;13.90;99.40;;;;;;5052331;28;20029;-76
2023/10/09 02:30:15;;;;;;;47.08;26.42;;;13.90;99.10;;;;;;5067910;28;20044;-77
2023/10/09 02:32:42;;;;;;;47.38;27.35;;;13.90;99.20;;;;;;5052632;28;20032;-75
2023/10/09 02:35:27;;;;;;;45.00;25.60;;;13.80;99.00;;;;;;5065811;28;20020;-75
2023/10/09 02:37:53;;;;;;;50.70;26.00;;;13.70;98.60;;;;;;5064320;28;20031;-76
2023/10/09 02:40:31;;;;;;;39.08;24.95;;;13.60;98.80;;;;;;5068278;28;20641;-75
2023/10/09 02:42:58;;;;;;;41.83;25.08;;;13.50;98.70;;;;;;5055925;28;20032;-76
2023/10/09 02:45:29;;;;;;;39.63;23.67;;;13.40;98.80;;;;;;5074056;28;20036;-75
2023/10/09 02:47:55;;;;;;;42.65;24.13;;;13.40;98.90;;;;;;5053652;28;20034;-76
2023/10/09 02:50:22;;;;;;;44.70;24.42;;;13.40;98.90;;;;;;5068849;28;20032;-76
2023/10/09 02:52:59;;;;;;;48.58;25.52;;;13.30;98.60;;;;;;5053072;28;20746;-77
2023/10/09 02:55:26;;;;;;;52.63;27.17;;;13.30;99.00;;;;;;5070900;28;20032;-77
2023/10/09 02:58:05;;;;;;;52.80;26.27;;;13.30;99.20;;;;;;5061854;28;21214;-75
2023/10/09 03:00:32;;;;;;;47.72;24.73;;;13.30;99.30;;;;;;5062582;28;20032;-75
2023/10/09 03:02:58;;;;;;;37.20;24.17;;;13.20;99.20;;;;;;5056913;28;20565;-75
2023/10/09 03:05:28;;;;;;;39.28;22.30;;;13.20;99.10;;;;;;5076427;28;20041;-76
2023/10/09 03:07:54;;;;;;;39.38;20.38;;;13.10;98.80;;;;;;5060698;28;20025;-76
2023/10/09 03:10:22;;;;;;;45.17;23.90;;;13.00;98.60;;;;;;5071617;28;20428;-76
2023/10/09 03:12:52;;;;;;;38.00;22.33;;;13.00;98.70;;;;;;5059727;28;20401;-76
2023/10/09 03:15:20;;;;;;;39.80;22.25;;;12.90;98.90;;;;;;5066835;28;21764;-76
2023/10/09 03:17:47;;;;;;;34.90;21.15;;;12.80;98.60;;;;;;5060928;28;20035;-76
2023/10/09 03:20:14;;;;;;;33.17;18.02;;;12.70;98.50;;;;;;5068698;28;20043;-76
2023/10/09 03:22:41;;;;;;;29.10;18.00;;;12.60;98.50;;;;;;5057056;28;20151;-76
2023/10/09 03:25:13;;;;;;;31.15;18.15;;;12.50;98.40;;;;;;5070578;28;20080;-76
2023/10/09 03:27:44;;;;;;;35.25;20.90;;;12.40;98.40;;;;;;5053865;28;20036;-76
2023/10/09 03:30:16;;;;;;;45.90;24.77;;;12.30;98.60;;;;;;5070082;28;20031;-76
2023/10/09 03:32:44;;;;;;;39.38;22.83;;;12.40;99.10;;;;;;5054979;28;20028;-76
2023/10/09 03:35:14;;;;;;;40.00;23.48;;;12.40;99.20;;;;;;5066278;28;20020;-75
2023/10/09 03:37:39;;;;;;;44.20;23.90;;;12.50;99.40;;;;;;5067729;28;20243;-75
2023/10/09 03:40:07;;;;;;;41.50;24.83;;;12.50;99.40;;;;;;5055795;28;20032;-75
2023/10/09 03:42:36;;;;;;;44.40;24.27;;;12.50;99.30;;;;;;5069070;28;20032;-76
2023/10/09 03:45:12;;;;;;;42.53;24.47;;;12.50;99.30;;;;;;5078938;28;20034;-76
2023/10/09 03:47:41;;;;;;;42.25;23.52;;;12.50;99.30;;;;;;5071074;28;20761;-76
2023/10/09 03:50:23;;;;;;;41.47;23.40;;;12.50;99.30;;;;;;5059692;28;20131;-76
2023/10/09 03:52:52;;;;;;;44.20;24.90;;;12.50;99.30;;;;;;5070705;28;20044;-76
2023/10/09 03:55:19;;;;;;;47.45;24.90;;;12.50;99.40;;;;;;5053267;28;20039;-76
2023/10/09 03:57:45;;;;;;;40.40;24.05;;;12.60;99.50;;;;;;5076373;28;20505;-76
2023/10/09 04:00:27;;;;;;;37.97;23.52;;;12.60;99.50;;;;;;5053085;28;20126;-76
2023/10/09 04:02:57;;;;;;;39.67;24.08;;;12.70;99.50;;;;;;5071521;28;20480;-75
2023/10/09 04:05:24;;;;;;;37.53;23.52;;;12.60;99.30;;;;;;5060210;28;20477;-76
2023/10/09 04:07:53;;;;;;;40.75;23.23;;;12.70;99.30;;;;;;5065694;28;20036;-76
2023/10/09 04:10:32;;;;;;;37.35;22.83;;;12.60;99.10;;;;;;5060875;28;20114;-76
2023/10/09 04:13:00;;;;;;;42.47;23.98;;;12.60;99.20;;;;;;5068161;28;20033;-76
2023/10/09 04:15:30;;;;;;;37.50;23.20;;;12.60;99.10;;;;;;5053091;28;20168;-76
2023/10/09 04:17:56;;;;;;;36.78;22.50;;;12.60;99.20;;;;;;5071353;28;20027;-76
2023/10/09 04:22:51;;;;;;;37.35;22.70;;;12.60;99.20;;;;;;5070593;28;20036;-76
2023/10/09 04:25:28;;;;;;;45.35;24.92;;;12.60;99.30;;;;;;5057011;28;20496;-77
2023/10/09 04:28:09;;;;;;;38.40;23.35;;;12.60;99.40;;;;;;5068470;28;20032;-76
2023/10/09 04:30:40;;;;;;;42.97;25.05;;;12.60;99.40;;;;;;5055600;28;20425;-76
2023/10/09 04:33:11;;;;;;;38.60;24.33;;;12.60;99.40;;;;;;5069046;28;20665;-76
2023/10/09 04:35:38;;;;;;;44.67;25.40;;;12.70;99.40;;;;;;5054814;28;20059;-76
2023/10/09 04:38:05;;;;;;;37.88;23.08;;;12.70;99.50;;;;;;5072474;28;20664;-76
2023/10/09 04:40:51;;;;;;;38.20;23.95;;;12.70;99.30;;;;;;5056166;28;21188;-76
2023/10/09 04:43:20;;;;;;;33.72;21.83;;;12.70;98.90;;;;;;5072855;28;20573;-76
2023/10/09 04:46:23;;;;;;;38.50;22.20;;;12.60;98.70;;;;;;5057437;28;20040;-76
2023/10/09 04:48:33;;;;;;;33.40;20.58;;;12.50;98.70;;;;;;5067104;28;20051;-75
2023/10/09 04:51:34;;;;;;;37.55;20.77;;;12.40;98.70;;;;;;5054033;28;20040;-75
2023/10/09 04:53:54;;;;;;;32.63;20.73;;;12.30;98.60;;;;;;5068261;28;20040;-75
2023/10/09 04:56:24;;;;;;;39.47;21.25;;;12.30;98.60;;;;;;5054650;28;20547;-75
2023/10/09 04:59:03;;;;;;;34.85;21.42;;;12.20;98.50;;;;;;5072704;28;20054;-75
2023/10/09 05:01:36;;;;;;;38.80;21.23;;;12.20;98.70;;;;;;5051581;28;20067;-76
2023/10/09 05:04:04;;;;;;;28.92;19.48;;;12.10;98.80;;;;;;5069475;28;20024;-76
2023/10/09 05:06:42;;;;;;;35.17;20.60;;;12.10;98.90;;;;;;5063769;28;20029;-76
2023/10/09 05:09:08;;;;;;;36.65;20.45;;;12.00;98.80;;;;;;5075394;28;20028;-76
2023/10/09 05:11:53;;;;;;;34.30;20.65;;;12.10;99.10;;;;;;5058323;28;20495;-76
2023/10/09 05:14:26;;;;;;;34.30;21.67;;;12.10;99.00;;;;;;5066049;28;20228;-76
2023/10/09 05:16:54;;;;;;;33.58;20.08;;;12.10;98.90;;;;;;5056046;28;20036;-75
2023/10/09 05:19:33;;;;;;;35.28;20.00;;;12.10;98.90;;;;;;5067724;28;20078;-76
2023/10/09 05:22:04;;;;;;;34.88;19.63;;;12.10;98.90;;;;;;5047443;28;20119;-76
2023/10/09 05:24:42;;;;;;;32.13;18.40;;;12.10;98.80;;;;;;5070967;28;20166;-76
2023/10/09 05:29:19;;;;;;;32.97;18.27;;;12.10;98.90;;;;;;5054537;28;20593;-75
2023/10/09 05:30:12;;;;;;;29.05;18.80;;;12.00;98.80;;;;;;5066631;28;20089;-76
2023/10/09 05:32:48;;;;;;;39.58;21.00;;;12.00;98.70;;;;;;5052669;28;20083;-75
2023/10/09 05:35:15;;;;;;;39.67;22.85;;;12.10;99.00;;;;;;5067730;28;20476;-75
2023/10/09 05:37:43;;;;;;;31.60;20.52;;;12.10;99.20;;;;;;5055729;28;20040;-75
2023/10/09 05:43:05;;;;;;;29.40;18.33;;;12.10;99.20;;;;;;5058671;28;20028;-75
2023/10/09 05:46:36;;;;;;;29.83;17.27;;;12.10;98.80;;;;;;5070106;28;20545;-75
2023/10/09 05:51:41;;;;;;;26.58;17.90;;;12.20;98.50;;;;;;5067448;28;20041;-77
2023/10/09 06:04:20;;;;;;;27.30;17.65;;;12.20;99.00;;;;;;5050267;28;20075;-77
2023/10/09 06:06:55;;;;;;;30.25;17.00;;;12.30;98.70;;;;;;5064736;28;20111;-76
2023/10/09 06:11:54;;;;;;;34.10;18.65;;;12.30;98.30;;;;;;5059934;28;20609;-77
2023/10/09 06:14:25;;;;;;;28.80;18.77;;;12.20;98.50;;;;;;5053496;28;20039;-77
2023/10/09 06:17:00;;;;;;;32.20;19.35;;;12.20;98.80;;;;;;5065354;28;20027;-77
2023/10/09 06:19:27;;;;;;;27.98;18.05;;;12.20;98.90;;;;;;5038034;28;20928;-77
2023/10/09 06:22:56;;;;;;;28.60;17.65;;;12.20;98.80;;;;;;5049065;28;20037;-76
2023/10/09 06:24:42;;;;;;;28.15;18.08;;;12.20;98.70;;;;;;5033413;28;20135;-76
2023/10/09 06:29:36;;;;;;;29.92;18.45;;;12.30;99.10;;;;;;5072498;28;20535;-75
2023/10/09 06:34:56;;;;;;;30.52;16.48;;;12.30;98.80;;;;;;5037909;28;20369;-72
2023/10/09 06:39:50;;;;;;;27.67;17.95;;;12.40;98.70;;;;;;5027944;28;20036;-73
2023/10/09 06:42:30;;;;;;;27.17;16.65;;;12.40;98.60;;;;;;5030340;28;21471;-71
2023/10/09 06:45:00;;;;;;;25.40;15.60;;;12.40;98.50;;;;;;5033183;28;20033;-73
2023/10/09 06:47:25;;;;;;;28.60;16.98;;;12.50;98.60;;;;;;5037762;28;20497;-73
2023/10/09 06:51:03;;;;;;;22.63;16.27;;;12.50;98.60;;;;;;5027205;28;21076;-73
2023/10/09 06:53:58;;;;;;;27.73;16.25;;;12.60;98.70;;;;;;5047080;28;21069;-73
2023/10/09 06:55:33;;;;;;;30.25;15.98;;;12.60;98.50;;;;;;5052163;28;20033;-70
2023/10/09 06:58:01;;;;;;;25.67;17.25;;;12.70;98.40;;;;;;5064790;28;20029;-73
2023/10/09 07:01:19;;;;;;;27.83;16.40;;;12.80;98.40;;;;;;5059495;28;20163;-72
2023/10/09 07:03:14;;;;;;;26.98;15.60;;;12.80;98.20;;;;;;5076100;28;20016;-71
2023/10/09 07:06:48;;;;;;;24.65;15.27;;;13.00;97.90;;;;;;5081076;28;20788;-72
2023/10/09 07:08:31;;;;;;;28.30;16.55;;;13.00;98.10;;;;;;5079964;28;20035;-72
2023/10/09 07:12:09;;;;;;;23.85;14.82;;;13.10;98.30;;;;;;5068859;28;20131;-71
2023/10/09 07:13:53;;;;;;;25.05;15.50;;;13.20;98.10;;;;;;5071861;28;20036;-72
2023/10/09 07:16:28;;;;;;;24.30;15.60;;;13.40;98.10;;;;;;5054260;28;20033;-71
2023/10/09 07:18:54;;;;;;;24.98;14.65;;;13.50;97.90;;;;;;5057107;28;20078;-73
2023/10/09 07:21:27;;;;;;;32.28;15.30;;;13.70;97.70;;;;;;5035814;28;20059;-72
2023/10/09 07:23:58;;;;;;;23.23;14.95;;;13.80;97.80;;;;;;5059398;28;20139;-73
2023/10/09 07:26:25;;;;;;;29.55;15.98;;;13.90;97.60;;;;;;5049309;28;20593;-72
2023/10/09 07:29:15;;;;;;;24.45;15.07;;;14.10;97.10;;;;;;5059875;28;20527;-72
2023/10/09 07:31:45;;;;;;;22.08;14.90;;;14.20;96.50;;;;;;5044540;28;20041;-72
2023/10/09 07:34:52;;;;;;;21.95;14.02;;;14.20;97.10;;;;;;5051101;28;20067;-71
2023/10/09 07:36:57;;;;;;;19.92;12.95;;;14.40;97.10;;;;;;5036472;28;20432;-72
2023/10/09 07:39:23;;;;;;;24.02;13.05;;;14.50;96.80;;;;;;5052558;28;20090;-72
2023/10/09 07:42:01;;;;;;;24.05;13.35;;;14.70;96.60;;;;;;5028829;28;20029;-71
2023/10/09 07:44:36;;;;;;;26.25;14.77;;;14.90;96.20;;;;;;5048503;28;20178;-72
2023/10/09 07:47:22;;;;;;;20.33;13.05;;;15.20;95.70;;;;;;5034606;28;20032;-72
2023/10/09 07:49:52;;;;;;;22.75;14.05;;;15.40;95.00;;;;;;5043776;28;21142;-73
2023/10/09 07:52:18;;;;;;;21.58;13.18;;;15.80;94.60;;;;;;5033702;28;20041;-75
2023/10/09 07:54:49;;;;;;;18.90;12.07;;;16.00;93.30;;;;;;5044507;28;20161;-72
2023/10/09 07:57:16;;;;;;;16.13;10.10;;;16.20;92.70;;;;;;5042356;28;20113;-73
2023/10/09 07:59:54;;;;;;;22.02;10.13;;;16.30;91.00;;;;;;5056303;28;20025;-73
2023/10/09 08:02:31;;;;;;;13.18;9.43;;;16.50;91.00;;;;;;5030147;28;20048;-74
2023/10/09 08:05:06;;;;;;;15.75;10.50;;;16.60;90.60;;;;;;5050813;28;20619;-72
2023/10/09 08:07:34;;;;;;;23.27;10.32;;;16.50;91.50;;;;;;5040373;28;20500;-73
2023/10/09 08:15:21;;;;;;;17.00;9.95;;;17.20;91.00;;;;;;5048258;28;20130;-76
2023/10/09 08:17:53;;;;;;;13.75;8.98;;;17.40;90.20;;;;;;5045351;28;20051;-74
2023/10/09 08:20:25;;;;;;;18.83;8.93;;;17.50;88.80;;;;;;5050188;28;20077;-74
2023/10/09 08:22:55;;;;;;;16.73;9.23;;;17.20;90.30;;;;;;5043732;28;20037;-74
2023/10/09 08:25:26;;;;;;;15.45;8.32;;;17.40;89.50;;;;;;5055329;28;20044;-77
2023/10/09 08:30:28;;;;;;;13.15;8.52;;;17.60;88.10;;;;;;5041704;28;20119;-73
2023/10/09 08:30:50;;;;;;;13.80;7.47;;;17.80;85.10;;;;;;5059359;28;20040;-72
2023/10/09 08:33:58;;;;;;;18.75;8.88;;;17.90;86.80;;;;;;5054086;28;20041;-75
2023/10/09 08:36:04;;;;;;;18.30;7.88;;;18.00;86.90;;;;;;5049810;28;20056;-72
2023/10/09 08:38:33;;;;;;;16.48;8.65;;;18.00;86.60;;;;;;5050511;28;20024;-72
2023/10/09 08:41:15;;;;;;;16.40;8.20;;;17.90;87.40;;;;;;5053111;28;20025;-73
2023/10/09 08:43:47;;;;;;;16.77;7.82;;;17.90;87.30;;;;;;5036544;28;20512;-74
2023/10/09 08:46:18;;;;;;;12.50;7.70;;;17.90;86.70;;;;;;5055686;28;20067;-73
2023/10/09 08:48:45;;;;;;;12.88;8.27;;;18.10;86.60;;;;;;5036349;28;21731;-73
2023/10/09 08:51:11;;;;;;;16.42;7.75;;;18.40;85.40;;;;;;5045496;28;20033;-74
2023/10/09 08:53:42;;;;;;;20.48;8.50;;;18.80;84.20;;;;;;5038826;28;20517;-74
2023/10/09 08:56:10;;;;;;;16.83;7.45;;;18.70;84.10;;;;;;5047584;28;20321;-74
2023/10/09 08:58:38;;;;;;;23.13;7.80;;;18.80;83.20;;;;;;5041104;28;20036;-73
2023/10/09 09:01:04;;;;;;;15.13;7.78;;;19.00;82.40;;;;;;5050398;28;20120;-73
2023/10/09 09:03:39;;;;;;;21.08;7.45;;;19.20;80.50;;;;;;5046358;28;20105;-73
2023/10/09 09:06:05;;;;;;;17.60;8.63;;;19.40;79.20;;;;;;5047652;28;20452;-74
2023/10/09 09:08:36;;;;;;;11.20;6.90;;;19.40;79.60;;;;;;5045927;28;20419;-72
2023/10/09 09:11:22;;;;;;;11.10;7.18;;;19.30;79.60;;;;;;5039957;28;20126;-73
2023/10/09 09:14:18;;;;;;;11.73;6.22;;;19.40;79.20;;;;;;5053152;28;20036;-74
2023/10/09 09:16:48;;;;;;;11.23;6.68;;;19.50;77.00;;;;;;5045941;28;20033;-72
2023/10/09 09:19:17;;;;;;;13.18;5.85;;;19.80;74.30;;;;;;5031980;28;20036;-73
2023/10/09 09:21:48;;;;;;;12.18;5.85;;;19.90;73.60;;;;;;5043589;28;20470;-74
2023/10/09 09:24:31;;;;;;;11.65;5.97;;;20.10;73.60;;;;;;5037578;28;20538;-73
2023/10/09 09:27:33;;;;;;;16.38;6.85;;;20.10;73.40;;;;;;5046576;28;20064;-73
2023/10/09 09:29:54;;;;;;;9.82;6.50;;;20.10;74.40;;;;;;5037932;28;20051;-72
2023/10/09 09:32:35;;;;;;;13.82;6.65;;;20.00;72.90;;;;;;5053472;28;20085;-74
2023/10/09 09:35:04;;;;;;;12.95;5.93;;;20.20;73.00;;;;;;5038544;28;20037;-72
2023/10/09 09:37:32;;;;;;;14.18;6.18;;;20.30;73.30;;;;;;5052744;28;20029;-73
2023/10/09 09:40:01;;;;;;;21.65;7.30;;;20.20;74.90;;;;;;5044408;28;20262;-73
2023/10/09 09:42:31;;;;;;;14.93;7.40;;;20.10;74.70;;;;;;5056029;28;20035;-75
2023/10/09 09:44:58;;;;;;;14.65;7.88;;;20.30;74.00;;;;;;5045835;28;20030;-79
2023/10/09 09:47:26;;;;;;;16.08;7.93;;;20.30;73.90;;;;;;5045506;28;20039;-73
2023/10/09 09:49:59;;;;;;;20.77;8.15;;;20.30;73.50;;;;;;5047378;28;20460;-76
2023/10/09 09:52:37;;;;;;;19.13;8.77;;;20.30;74.60;;;;;;5045529;28;20129;-77
2023/10/09 09:55:04;;;;;;;21.60;8.57;;;20.10;76.30;;;;;;5042056;28;20028;-74
2023/10/09 09:57:32;;;;;;;16.17;8.43;;;20.20;75.70;;;;;;5032806;28;20039;-73
2023/10/09 10:00:01;;;;;;;21.15;7.88;;;20.40;74.10;;;;;;5051045;28;20044;-72
2023/10/09 10:02:33;;;;;;;17.88;7.05;;;20.60;72.90;;;;;;5031193;28;20044;-72
2023/10/09 10:05:05;;;;;;;17.92;7.03;;;20.90;71.20;;;;;;5054803;28;20470;-73
2023/10/09 10:07:42;;;;;;;17.42;6.63;;;21.20;71.40;;;;;;5038497;28;20047;-74
2023/10/09 10:10:37;;;;;;;15.23;6.57;;;21.50;69.20;;;;;;5043799;28;20032;-74
2023/10/09 10:13:04;;;;;;;15.43;6.38;;;21.90;67.00;;;;;;5037166;28;20086;-72
2023/10/09 10:15:57;;;;;;;18.27;6.47;;;22.00;65.90;;;;;;5049210;28;20032;-72
2023/10/09 10:18:24;;;;;;;16.30;6.95;;;22.00;63.80;;;;;;5054624;28;20027;-71
2023/10/09 10:21:15;;;;;;;11.85;5.05;;;22.30;62.80;;;;;;5057329;28;20154;-72
2023/10/09 10:23:46;;;;;;;11.65;4.88;;;22.40;60.50;;;;;;5057052;28;20194;-73
2023/10/09 10:26:18;;;;;;;10.77;5.00;;;22.70;59.40;;;;;;5055487;28;20730;-73
2023/10/09 10:28:45;;;;;;;12.13;4.75;;;22.70;59.20;;;;;;5047755;28;20380;-71
2023/10/09 10:31:13;;;;;;;13.02;5.15;;;22.60;59.20;;;;;;5051783;28;20028;-73
2023/10/09 10:33:59;;;;;;;11.75;4.68;;;22.50;59.90;;;;;;5040509;28;20485;-75
2023/10/09 10:36:27;;;;;;;14.35;4.90;;;22.30;59.00;;;;;;5043203;28;20034;-71
2023/10/09 10:39:05;;;;;;;10.88;4.63;;;22.30;59.80;;;;;;5041834;28;20040;-72
2023/10/09 10:41:36;;;;;;;9.40;4.90;;;22.30;59.00;;;;;;5040005;28;20044;-72
2023/10/09 10:44:34;;;;;;;8.82;4.25;;;22.40;58.00;;;;;;5031003;28;20320;-71
2023/10/09 10:46:52;;;;;;;13.25;4.55;;;22.40;58.40;;;;;;5037812;28;20043;-71
2023/10/09 10:49:22;;;;;;;13.77;4.22;;;22.60;57.90;;;;;;5028177;28;20520;-73
2023/10/09 10:51:49;;;;;;;22.08;5.30;;;22.20;58.70;;;;;;5045390;28;20464;-71
2023/10/09 10:54:47;;;;;;;7.03;4.07;;;22.10;59.00;;;;;;5040228;28;20035;-74
2023/10/09 10:57:19;;;;;;;10.02;4.80;;;22.30;58.60;;;;;;5040916;28;20039;-73
2023/10/09 10:59:45;;;;;;;13.88;4.70;;;22.80;57.10;;;;;;5047364;28;20141;-73
2023/10/09 11:07:38;;;;;;;16.50;5.22;;;22.10;61.30;;;;;;5053374;28;20024;-75
2023/10/09 11:10:10;;;;;;;11.25;5.45;;;21.90;64.00;;;;;;5032911;28;20036;-73
2023/10/09 11:12:55;;;;;;;13.05;5.40;;;21.70;66.30;;;;;;5042501;28;20217;-72
2023/10/09 11:15:44;;;;;;;11.15;5.22;;;21.50;66.10;;;;;;5043945;28;20032;-73
2023/10/09 11:18:27;;;;;;;13.63;5.68;;;21.40;66.50;;;;;;5037318;28;20427;-71
2023/10/09 11:23:58;;;;;;;11.98;5.68;;;21.30;67.50;;;;;;5045156;28;20584;-73
2023/10/09 11:26:26;;;;;;;10.70;6.20;;;21.40;66.80;;;;;;5054352;28;20028;-72
2023/10/09 11:32:01;;;;;;;17.85;6.38;;;21.20;68.60;;;;;;5053844;28;20044;-72
2023/10/09 11:34:29;;;;;;;14.18;6.70;;;21.20;69.70;;;;;;5041781;28;20032;-72
2023/10/09 11:36:58;;;;;;;13.90;7.23;;;21.30;69.10;;;;;;5053727;28;20892;-71
2023/10/09 11:39:32;;;;;;;19.05;7.07;;;21.30;69.20;;;;;;5047276;28;20374;-74
2023/10/09 11:42:05;;;;;;;13.82;7.80;;;21.40;69.60;;;;;;5059715;28;20048;-72
2023/10/09 11:44:40;;;;;;;17.30;7.45;;;21.40;70.70;;;;;;5037861;28;21168;-73
2023/10/09 11:47:24;;;;;;;15.98;7.57;;;21.40;70.40;;;;;;5059009;28;20228;-73
2023/10/09 11:50:10;;;;;;;15.88;8.13;;;21.40;70.80;;;;;;5052721;28;20345;-72
2023/10/09 11:52:56;;;;;;;19.65;8.02;;;21.40;70.70;;;;;;5053304;28;21940;-76
2023/10/09 11:55:25;;;;;;;18.10;8.77;;;21.40;70.50;;;;;;5040212;28;20040;-73
2023/10/09 11:57:51;;;;;;;16.38;9.10;;;21.40;69.90;;;;;;5052527;28;20566;-73
2023/10/09 12:00:44;;;;;;;14.50;7.68;;;21.30;70.60;;;;;;5052546;28;20024;-75
2023/10/09 12:03:05;;;;;;;15.73;7.47;;;21.30;70.40;;;;;;5053401;28;20066;-73
2023/10/09 12:05:31;;;;;;;15.60;8.07;;;21.10;70.90;;;;;;5045875;28;20040;-72
2023/10/09 12:07:59;;;;;;;16.20;7.80;;;21.20;70.70;;;;;;5050799;28;20576;-75
2023/10/09 12:10:25;;;;;;;14.20;7.85;;;21.10;72.10;;;;;;5035947;28;20056;-75
2023/10/09 12:12:53;;;;;;;15.93;7.82;;;21.10;71.10;;;;;;5051768;28;20113;-72
2023/10/09 12:15:20;;;;;;;18.35;8.65;;;21.00;71.20;;;;;;5023929;28;20432;-73
2023/10/09 12:17:47;;;;;;;21.55;9.32;;;21.00;72.50;;;;;;5044295;28;20024;-72
2023/10/09 12:20:29;;;;;;;13.43;8.07;;;20.90;73.10;;;;;;5038356;28;20446;-73
2023/10/09 12:22:57;;;;;;;13.68;8.05;;;21.10;71.80;;;;;;5051949;28;20032;-73
2023/10/09 12:25:23;;;;;;;16.98;8.00;;;21.20;72.00;;;;;;5043948;28;20518;-73
2023/10/09 12:27:49;;;;;;;14.63;8.10;;;21.20;71.50;;;;;;5056997;28;20066;-75
2023/10/09 12:30:15;;;;;;;17.40;7.30;;;21.40;71.00;;;;;;5054031;28;20454;-72
2023/10/09 12:32:41;;;;;;;16.77;7.40;;;21.50;70.30;;;;;;5050111;28;20040;-73
2023/10/09 12:35:17;;;;;;;15.00;6.78;;;21.60;70.00;;;;;;5044060;28;20039;-73
2023/10/09 12:37:43;;;;;;;14.52;6.55;;;21.70;69.70;;;;;;5036296;28;20403;-77
2023/10/09 12:40:10;;;;;;;22.20;6.65;;;21.90;68.80;;;;;;5057051;28;20232;-75
2023/10/09 12:42:36;;;;;;;13.63;6.43;;;22.30;68.60;;;;;;5040533;28;20115;-75
2023/10/09 12:45:08;;;;;;;13.52;6.75;;;22.30;67.20;;;;;;5048651;28;20167;-75
2023/10/09 12:47:37;;;;;;;13.88;6.20;;;22.20;66.90;;;;;;5040039;28;20482;-74
2023/10/09 12:50:09;;;;;;;18.95;7.22;;;22.00;66.70;;;;;;5050593;28;20126;-75
2023/10/09 12:52:37;;;;;;;15.65;6.75;;;21.90;69.20;;;;;;5045100;28;20032;-75
2023/10/09 12:55:07;;;;;;;12.35;7.30;;;21.90;70.70;;;;;;5057119;28;20059;-77
2023/10/09 12:57:33;;;;;;;23.33;7.85;;;21.80;70.10;;;;;;5036123;28;20120;-75
2023/10/09 12:59:59;;;;;;;19.63;8.25;;;21.80;70.80;;;;;;5050433;28;20092;-75
2023/10/09 13:02:28;;;;;;;12.23;7.05;;;21.80;70.50;;;;;;5042371;28;20584;-77
2023/10/09 13:04:55;;;;;;;13.35;7.18;;;21.90;69.80;;;;;;5053683;28;20040;-79
2023/10/09 13:07:22;;;;;;;18.98;7.93;;;21.90;71.40;;;;;;5042601;28;20066;-77
2023/10/09 13:10:08;;;;;;;11.90;6.88;;;22.00;70.20;;;;;;5054483;28;20116;-73
2023/10/09 13:12:38;;;;;;;15.95;7.40;;;22.30;70.30;;;;;;5045835;28;20571;-74
2023/10/09 13:15:09;;;;;;;17.65;7.63;;;23.00;67.80;;;;;;5061132;28;20040;-77
2023/10/09 13:17:36;;;;;;;19.67;7.85;;;23.30;65.10;;;;;;5040161;28;20490;-74
2023/10/09 13:20:04;;;;;;;13.68;7.72;;;23.50;66.40;;;;;;5056067;28;20071;-73
2023/10/09 13:22:30;;;;;;;15.27;7.22;;;23.60;67.00;;;;;;5044330;28;20041;-74
2023/10/09 13:25:03;;;;;;;12.75;6.88;;;23.70;66.70;;;;;;5055843;28;20543;-74
2023/10/09 13:27:34;;;;;;;13.60;7.57;;;24.30;63.60;;;;;;5044082;28;20119;-75
2023/10/09 13:30:05;;;;;;;12.57;7.20;;;24.60;61.80;;;;;;5053893;28;20436;-74
2023/10/09 13:32:35;;;;;;;12.88;6.50;;;25.10;60.80;;;;;;5046095;28;20020;-73
2023/10/09 13:35:05;;;;;;;14.27;6.80;;;25.60;59.40;;;;;;5054304;28;20155;-74
2023/10/09 13:37:36;;;;;;;13.52;6.88;;;25.70;57.40;;;;;;5044675;28;20028;-72
2023/10/09 13:40:11;;;;;;;9.77;6.00;;;26.10;55.70;;;;;;5048740;28;20029;-72
2023/10/09 13:42:37;;;;;;;12.60;6.40;;;26.60;53.80;;;;;;5052805;28;20156;-73
2023/10/09 13:45:15;;;;;;;19.05;6.75;;;27.10;51.80;;;;;;5045194;28;20032;-76
2023/10/09 13:47:45;;;;;;;12.47;7.20;;;27.20;51.30;;;;;;5061348;28;20458;-77